Time;durP1;ratioP1;P1;durP2;ratioP2;P2;SDS_P1;SDS_P2;PMS_P1;PMS_P2;Temp;Humidity;BMP_temperature;BMP_pressure;BME280_temperature;BME280_humidity;BME280_pressure;Samples;Min_cycle;Max_cycle;Signal;HPM_P1;HPM_P2
2021/06/01 00:01:06;;;;;;;1.73;0.57;;;18.40;45.90;;;;;;5054968;28;20103;-81
2021/06/01 00:03:32;;;;;;;2.33;0.63;;;18.30;45.80;;;;;;5071335;28;20031;-80
2021/06/01 00:05:58;;;;;;;2.38;0.68;;;18.30;46.00;;;;;;5054463;28;20051;-81
2021/06/01 00:08:24;;;;;;;2.08;0.60;;;18.20;46.00;;;;;;5054536;28;20469;-81
2021/06/01 00:10:50;;;;;;;1.65;0.60;;;18.20;46.20;;;;;;5054377;28;20079;-81
2021/06/01 00:13:16;;;;;;;2.63;0.60;;;18.10;46.20;;;;;;5054482;28;20439;-81
2021/06/01 00:15:41;;;;;;;4.15;0.63;;;18.10;46.40;;;;;;5054488;28;20033;-80
2021/06/01 00:18:07;;;;;;;2.25;0.65;;;18.10;46.50;;;;;;5071178;28;20087;-81
2021/06/01 00:20:32;;;;;;;3.47;0.80;;;18.00;46.60;;;;;;5054854;28;20506;-80
2021/06/01 00:22:58;;;;;;;2.83;0.65;;;18.00;46.90;;;;;;5054684;28;20033;-80
2021/06/01 00:25:24;;;;;;;3.08;1.00;;;17.90;46.90;;;;;;5070795;28;20029;-80
2021/06/01 00:27:49;;;;;;;2.47;0.70;;;17.90;47.70;;;;;;5060504;28;20108;-81
2021/06/01 00:30:16;;;;;;;2.22;0.60;;;17.80;47.00;;;;;;5073759;28;20028;-80
2021/06/01 00:32:41;;;;;;;5.97;0.70;;;17.80;47.10;;;;;;5057327;28;20033;-81
2021/06/01 00:35:07;;;;;;;3.72;0.85;;;17.70;47.30;;;;;;5057370;28;20043;-80
2021/06/01 00:37:33;;;;;;;1.27;0.60;;;17.70;47.30;;;;;;5057251;28;20063;-80
2021/06/01 00:39:58;;;;;;;1.73;0.63;;;17.70;47.40;;;;;;5040682;28;20056;-81
2021/06/01 00:42:24;;;;;;;3.17;0.80;;;17.70;47.60;;;;;;5073865;28;20020;-81
2021/06/01 00:44:51;;;;;;;2.17;0.60;;;17.60;47.80;;;;;;5057210;28;20559;-80
2021/06/01 00:47:16;;;;;;;2.30;0.75;;;17.60;47.80;;;;;;5056422;28;20041;-81
2021/06/01 00:49:42;;;;;;;3.00;0.70;;;17.60;47.90;;;;;;5073081;28;20074;-80
2021/06/01 00:52:08;;;;;;;2.95;0.73;;;17.50;47.80;;;;;;5056908;28;20040;-80
2021/06/01 00:54:34;;;;;;;3.20;0.80;;;17.50;47.80;;;;;;5040292;28;20043;-80
2021/06/01 00:57:00;;;;;;;3.58;0.68;;;17.50;47.70;;;;;;5037209;28;20029;-80
2021/06/01 00:59:26;;;;;;;1.70;0.60;;;17.50;47.80;;;;;;5036820;28;20111;-80
2021/06/01 01:02:05;;;;;;;2.30;0.70;;;17.40;47.80;;;;;;5020281;28;20165;-81
2021/06/01 01:04:31;;;;;;;3.72;0.88;;;17.50;47.80;;;;;;5053627;28;20036;-81
2021/06/01 01:07:14;;;;;;;2.10;0.70;;;17.40;47.80;;;;;;5070043;28;20427;-79
2021/06/01 01:09:42;;;;;;;3.22;0.77;;;17.40;47.90;;;;;;5053323;28;20063;-80
2021/06/01 01:12:17;;;;;;;2.33;0.88;;;17.30;47.90;;;;;;5037145;28;20029;-80
2021/06/01 01:14:54;;;;;;;1.75;0.60;;;17.20;48.00;;;;;;5070064;28;20111;-80
2021/06/01 01:17:25;;;;;;;3.65;0.98;;;17.30;48.20;;;;;;5069927;28;20146;-81
2021/06/01 01:19:56;;;;;;;1.90;0.80;;;17.20;48.10;;;;;;5069656;28;20116;-80
2021/06/01 01:22:22;;;;;;;2.78;0.80;;;17.20;48.20;;;;;;5069726;28;20017;-81
2021/06/01 01:25:17;;;;;;;2.03;0.75;;;17.20;48.30;;;;;;5036678;28;20023;-81
2021/06/01 01:27:52;;;;;;;1.65;0.60;;;17.10;48.30;;;;;;5056161;28;20124;-80
2021/06/01 01:30:18;;;;;;;3.17;0.88;;;17.10;48.40;;;;;;5052952;28;20032;-81
2021/06/01 01:32:59;;;;;;;1.67;0.60;;;17.00;48.40;;;;;;5019780;28;20049;-81
2021/06/01 01:35:29;;;;;;;2.13;0.70;;;17.10;48.70;;;;;;5053216;28;20035;-80
2021/06/01 01:38:01;;;;;;;2.25;0.80;;;17.00;48.60;;;;;;5036546;28;20120;-81
2021/06/01 01:40:30;;;;;;;1.65;0.70;;;17.00;48.70;;;;;;5053754;28;20465;-80
2021/06/01 01:43:10;;;;;;;2.05;0.80;;;16.90;48.80;;;;;;5054268;28;20029;-81
2021/06/01 01:45:39;;;;;;;4.32;0.90;;;16.90;48.90;;;;;;5052754;28;20044;-81
2021/06/01 01:50:59;;;;;;;4.18;0.77;;;16.80;49.00;;;;;;5054491;28;20044;-81
2021/06/01 01:53:25;;;;;;;2.95;0.98;;;16.80;49.00;;;;;;5037407;28;20409;-80
2021/06/01 01:55:52;;;;;;;2.40;0.60;;;16.80;49.20;;;;;;5054126;28;20033;-80
2021/06/01 01:58:20;;;;;;;1.80;0.73;;;16.80;49.40;;;;;;5055334;28;20066;-80
2021/06/01 02:00:48;;;;;;;3.25;0.93;;;16.70;49.30;;;;;;5072872;28;20060;-81
2021/06/01 02:03:14;;;;;;;4.32;1.00;;;16.60;49.40;;;;;;5072862;28;20022;-81
2021/06/01 02:05:41;;;;;;;3.03;0.73;;;16.70;49.60;;;;;;5073776;28;20017;-80
2021/06/01 02:08:11;;;;;;;2.95;0.90;;;16.60;49.70;;;;;;5072512;28;20020;-81
2021/06/01 02:10:36;;;;;;;2.40;0.80;;;16.50;49.90;;;;;;5039300;28;20388;-80
2021/06/01 02:13:06;;;;;;;4.68;1.08;;;16.50;50.10;;;;;;5055558;28;20031;-81
2021/06/01 02:15:32;;;;;;;3.20;1.10;;;16.50;50.30;;;;;;5055467;28;20070;-80
2021/06/01 02:17:58;;;;;;;2.08;0.90;;;16.40;50.40;;;;;;5039202;28;20127;-81
2021/06/01 02:20:24;;;;;;;5.60;1.00;;;16.40;50.50;;;;;;5055618;28;20039;-80
2021/06/01 02:26:11;;;;;;;2.08;0.77;;;16.30;50.90;;;;;;5073695;28;20044;-81
2021/06/01 02:28:44;;;;;;;3.17;0.90;;;16.30;51.00;;;;;;5072012;28;20078;-80
2021/06/01 02:31:33;;;;;;;2.55;1.02;;;16.20;51.10;;;;;;5071774;28;20085;-80
2021/06/01 02:34:03;;;;;;;2.80;1.00;;;16.20;51.30;;;;;;5072364;28;20039;-79
2021/06/01 02:36:31;;;;;;;3.40;1.23;;;16.20;51.30;;;;;;5072267;28;20025;-80
2021/06/01 02:38:58;;;;;;;2.83;0.90;;;16.10;51.40;;;;;;5072161;28;20028;-80
2021/06/01 02:41:25;;;;;;;6.05;1.10;;;16.10;51.70;;;;;;5055398;28;20123;-80
2021/06/01 02:43:51;;;;;;;2.92;1.00;;;16.00;51.90;;;;;;5071979;28;20021;-81
2021/06/01 02:46:18;;;;;;;2.60;1.00;;;16.00;52.10;;;;;;5072001;28;20125;-80
2021/06/01 02:48:45;;;;;;;2.40;1.10;;;16.00;52.40;;;;;;5072251;28;20017;-79
2021/06/01 02:51:16;;;;;;;2.55;1.02;;;15.90;52.40;;;;;;5071949;28;20429;-80
2021/06/01 02:53:46;;;;;;;5.28;1.10;;;15.90;52.40;;;;;;5072227;28;20108;-80
2021/06/01 02:56:14;;;;;;;2.80;1.00;;;15.90;52.70;;;;;;5073289;28;20151;-79
2021/06/01 02:58:41;;;;;;;3.38;1.15;;;15.80;52.70;;;;;;5073456;28;20021;-81
2021/06/01 03:01:10;;;;;;;3.08;1.17;;;15.80;52.70;;;;;;5055316;28;20058;-80
2021/06/01 03:03:35;;;;;;;4.13;1.17;;;15.80;52.80;;;;;;5071837;28;20021;-81
2021/06/01 03:06:05;;;;;;;2.63;1.20;;;15.70;52.80;;;;;;5055572;28;20082;-79
2021/06/01 03:08:31;;;;;;;4.85;1.30;;;15.70;53.20;;;;;;5055170;28;20078;-79
2021/06/01 03:10:59;;;;;;;4.93;1.13;;;15.70;53.30;;;;;;5055590;28;20029;-79
2021/06/01 03:13:26;;;;;;;4.32;1.15;;;15.70;53.50;;;;;;5075695;28;20020;-80
2021/06/01 03:15:52;;;;;;;4.70;1.45;;;15.60;53.50;;;;;;5075474;28;20605;-79
2021/06/01 03:18:19;;;;;;;6.50;1.33;;;15.60;53.60;;;;;;5075529;28;20085;-80
2021/06/01 03:20:45;;;;;;;4.47;1.27;;;15.50;53.70;;;;;;5058719;28;20028;-80
2021/06/01 03:23:11;;;;;;;4.35;1.10;;;15.50;53.80;;;;;;5075317;28;20017;-79
2021/06/01 03:25:37;;;;;;;3.55;1.40;;;15.50;53.90;;;;;;5075227;28;20411;-79
2021/06/01 03:28:03;;;;;;;3.60;1.20;;;15.50;54.10;;;;;;5056511;28;20044;-79
2021/06/01 03:30:29;;;;;;;2.95;1.35;;;15.40;54.70;;;;;;5055310;28;20111;-79
2021/06/01 03:32:56;;;;;;;6.05;1.48;;;15.40;54.80;;;;;;5038957;28;20140;-79
2021/06/01 03:35:23;;;;;;;3.75;1.02;;;15.40;55.00;;;;;;5038861;28;20025;-79
2021/06/01 03:37:49;;;;;;;5.30;1.95;;;15.30;55.00;;;;;;5038507;28;20028;-79
2021/06/01 03:40:16;;;;;;;4.25;1.48;;;15.30;55.10;;;;;;5054958;28;20614;-79
2021/06/01 03:42:41;;;;;;;4.82;1.08;;;15.30;55.20;;;;;;5054904;28;20021;-79
2021/06/01 03:45:08;;;;;;;5.35;1.52;;;15.20;55.30;;;;;;5038539;28;20040;-80
2021/06/01 03:47:33;;;;;;;5.20;1.40;;;15.20;55.50;;;;;;5038332;28;20021;-79
2021/06/01 03:49:59;;;;;;;3.67;1.33;;;15.20;55.40;;;;;;5038206;28;20025;-79
2021/06/01 03:52:25;;;;;;;4.10;1.55;;;15.20;55.60;;;;;;5038277;28;20048;-80
2021/06/01 03:54:50;;;;;;;4.57;1.42;;;15.20;55.70;;;;;;5038241;28;20128;-80
2021/06/01 03:57:16;;;;;;;4.43;1.58;;;15.20;56.30;;;;;;5038207;28;20074;-79
2021/06/01 03:59:42;;;;;;;4.90;1.33;;;15.20;55.70;;;;;;5075709;28;20039;-80
2021/06/01 04:02:08;;;;;;;2.90;1.33;;;15.10;55.80;;;;;;5058506;28;20017;-80
2021/06/01 04:04:35;;;;;;;5.43;1.45;;;15.10;56.00;;;;;;5054427;28;20013;-80
2021/06/01 04:07:02;;;;;;;4.40;1.33;;;15.10;56.30;;;;;;5054272;28;20017;-79
2021/06/01 04:09:28;;;;;;;3.40;1.40;;;15.10;56.40;;;;;;5054327;28;20374;-80
2021/06/01 04:11:54;;;;;;;3.38;1.20;;;15.10;56.50;;;;;;5054382;28;20067;-80
2021/06/01 04:14:20;;;;;;;4.15;1.17;;;15.00;56.50;;;;;;5037837;28;20021;-80
2021/06/01 04:16:46;;;;;;;5.10;1.50;;;15.10;56.40;;;;;;5037551;28;20025;-80
2021/06/01 04:19:13;;;;;;;3.70;1.40;;;15.10;56.40;;;;;;5037756;28;20500;-80
2021/06/01 04:21:41;;;;;;;3.85;1.25;;;15.10;56.40;;;;;;5054276;28;20052;-79
2021/06/01 04:24:08;;;;;;;5.05;1.67;;;15.10;56.60;;;;;;5054299;28;20032;-79
2021/06/01 04:26:33;;;;;;;4.40;1.38;;;15.10;56.70;;;;;;5037708;28;20029;-81
2021/06/01 04:28:59;;;;;;;3.25;1.25;;;15.10;56.90;;;;;;5037697;28;20365;-80
2021/06/01 04:31:25;;;;;;;5.20;1.38;;;15.20;56.90;;;;;;5054073;28;20460;-81
2021/06/01 04:33:50;;;;;;;3.65;1.10;;;15.10;56.90;;;;;;5054320;28;20029;-81
2021/06/01 04:36:16;;;;;;;3.70;1.38;;;15.20;57.00;;;;;;5037631;28;20044;-80
2021/06/01 04:38:42;;;;;;;5.35;1.30;;;15.10;57.10;;;;;;5037532;28;20036;-80
2021/06/01 04:41:07;;;;;;;6.38;1.30;;;15.20;57.30;;;;;;5037315;28;20029;-81
2021/06/01 04:43:33;;;;;;;3.55;1.45;;;15.20;57.40;;;;;;5054202;28;20025;-81
2021/06/01 04:45:59;;;;;;;3.45;1.40;;;15.20;57.50;;;;;;5055479;28;20025;-81
2021/06/01 04:48:25;;;;;;;6.25;1.65;;;15.20;57.60;;;;;;5053818;28;20380;-80
2021/06/01 04:50:50;;;;;;;3.80;1.40;;;15.20;58.20;;;;;;5037178;28;20116;-81
2021/06/01 04:53:16;;;;;;;8.98;1.50;;;15.20;57.60;;;;;;5054299;28;20610;-81
2021/06/01 04:55:42;;;;;;;6.82;1.60;;;15.20;57.70;;;;;;5037170;28;20029;-81
2021/06/01 04:58:08;;;;;;;3.97;1.40;;;15.20;57.80;;;;;;5053540;28;20100;-81
2021/06/01 05:00:34;;;;;;;4.65;1.55;;;15.20;57.80;;;;;;5053491;28;20036;-81
2021/06/01 05:02:59;;;;;;;8.60;2.00;;;15.30;58.10;;;;;;5037297;28;20017;-81
2021/06/01 05:05:25;;;;;;;6.10;1.80;;;15.30;58.20;;;;;;5036886;28;20445;-81
2021/06/01 05:07:53;;;;;;;5.10;1.70;;;15.30;58.50;;;;;;5053632;28;20023;-81
2021/06/01 05:10:19;;;;;;;4.82;1.60;;;15.30;58.80;;;;;;5053218;28;20021;-81
2021/06/01 05:12:44;;;;;;;5.75;1.58;;;15.30;58.70;;;;;;5053724;28;20029;-81
2021/06/01 05:15:19;;;;;;;5.10;2.08;;;15.30;58.60;;;;;;5052919;28;20025;-82
2021/06/01 05:17:45;;;;;;;4.35;1.75;;;15.30;58.50;;;;;;5037841;28;20120;-81
2021/06/01 05:20:11;;;;;;;5.15;1.65;;;15.40;58.50;;;;;;5067923;28;20111;-81
2021/06/01 05:22:37;;;;;;;3.22;1.60;;;15.40;58.50;;;;;;5056234;28;20028;-80
2021/06/01 05:25:03;;;;;;;5.82;1.92;;;15.50;58.50;;;;;;5074387;28;20028;-79
2021/06/01 05:27:29;;;;;;;3.17;1.80;;;15.50;58.50;;;;;;5073043;28;20044;-80
2021/06/01 05:29:59;;;;;;;5.25;1.50;;;15.50;58.60;;;;;;5073568;28;20032;-81
2021/06/01 05:35:22;;;;;;;6.00;1.65;;;15.50;58.70;;;;;;5071782;28;20025;-82
2021/06/01 05:37:52;;;;;;;5.07;1.70;;;15.50;58.60;;;;;;5067783;28;20025;-82
2021/06/01 05:40:19;;;;;;;6.25;1.70;;;15.60;58.50;;;;;;5058341;28;20032;-81
2021/06/01 05:42:44;;;;;;;5.65;1.75;;;15.60;58.40;;;;;;5054306;28;20035;-81
2021/06/01 05:45:11;;;;;;;4.70;2.10;;;15.60;58.30;;;;;;5070869;28;20104;-82
2021/06/01 05:47:37;;;;;;;4.65;1.63;;;15.70;58.30;;;;;;5053153;28;20431;-82
2021/06/01 05:53:01;;;;;;;6.18;1.55;;;15.80;58.30;;;;;;5054427;28;20036;-82
2021/06/01 05:55:30;;;;;;;4.63;1.95;;;15.80;58.20;;;;;;5052716;28;20033;-82
2021/06/01 05:57:55;;;;;;;5.10;1.83;;;15.90;58.30;;;;;;5059740;28;20017;-81
2021/06/01 06:00:30;;;;;;;4.85;1.77;;;15.90;58.30;;;;;;5060144;28;20032;-82
2021/06/01 06:03:00;;;;;;;7.47;1.77;;;15.90;58.20;;;;;;5020713;28;20074;-81
2021/06/01 06:05:26;;;;;;;5.85;1.80;;;15.90;58.20;;;;;;5058970;28;20489;-81
2021/06/01 06:07:52;;;;;;;4.60;2.20;;;15.90;58.20;;;;;;5028432;28;20031;-81
2021/06/01 06:10:18;;;;;;;4.40;1.75;;;16.00;58.40;;;;;;5058572;28;20032;-81
2021/06/01 06:12:49;;;;;;;4.78;1.48;;;16.10;58.30;;;;;;5052399;28;20132;-81
2021/06/01 06:15:17;;;;;;;6.45;1.90;;;16.10;58.30;;;;;;5053106;28;20017;-81
2021/06/01 06:17:51;;;;;;;4.25;1.92;;;16.10;58.20;;;;;;5053139;28;20112;-81
2021/06/01 06:20:20;;;;;;;5.45;1.60;;;16.10;58.20;;;;;;5059502;28;20025;-82
2021/06/01 06:23:09;;;;;;;5.03;1.90;;;16.10;58.10;;;;;;5067008;28;20113;-82
2021/06/01 06:25:37;;;;;;;7.10;2.25;;;16.20;58.10;;;;;;5073309;28;20411;-82
2021/06/01 06:28:03;;;;;;;7.57;2.08;;;16.30;58.10;;;;;;5054691;28;20025;-81
2021/06/01 06:30:29;;;;;;;3.88;1.60;;;16.30;58.10;;;;;;5051959;28;20029;-83
2021/06/01 06:32:57;;;;;;;8.75;2.15;;;16.30;58.00;;;;;;5052225;28;20056;-82
2021/06/01 06:35:22;;;;;;;6.45;2.33;;;16.30;57.90;;;;;;5053557;28;20067;-84
2021/06/01 06:37:48;;;;;;;4.82;1.85;;;16.40;57.90;;;;;;5052081;28;20514;-82
2021/06/01 06:40:16;;;;;;;4.85;2.13;;;16.40;57.90;;;;;;5053495;28;20033;-82
2021/06/01 06:42:45;;;;;;;4.68;1.48;;;16.50;57.80;;;;;;5052040;28;20021;-81
2021/06/01 06:45:14;;;;;;;9.02;1.92;;;16.50;57.90;;;;;;5036745;28;20124;-81
2021/06/01 06:50:18;;;;;;;5.90;2.20;;;16.60;57.80;;;;;;5056324;28;20044;-80
2021/06/01 06:52:44;;;;;;;5.78;1.88;;;16.60;57.80;;;;;;5056094;28;20033;-83
2021/06/01 06:55:12;;;;;;;5.47;2.10;;;16.60;57.80;;;;;;5057151;28;20112;-81
2021/06/01 06:57:39;;;;;;;5.80;2.35;;;16.70;57.90;;;;;;5023438;28;20029;-82
2021/06/01 07:00:10;;;;;;;5.28;2.53;;;16.70;57.90;;;;;;5057308;28;20461;-81
2021/06/01 07:02:36;;;;;;;9.30;2.50;;;16.80;57.90;;;;;;5061868;28;20044;-82
2021/06/01 07:05:04;;;;;;;9.48;2.78;;;16.80;57.90;;;;;;5066423;28;20472;-84
2021/06/01 07:07:30;;;;;;;6.53;2.50;;;16.80;58.00;;;;;;5056829;28;20033;-82
2021/06/01 07:09:56;;;;;;;5.15;1.88;;;16.90;58.00;;;;;;5039392;28;20037;-81
2021/06/01 07:12:22;;;;;;;5.40;2.35;;;16.90;58.20;;;;;;5056100;28;20023;-81
2021/06/01 07:14:59;;;;;;;7.13;2.35;;;17.00;58.20;;;;;;5038705;28;20029;-81
2021/06/01 07:17:25;;;;;;;5.90;2.28;;;17.00;58.30;;;;;;5058943;28;20061;-81
2021/06/01 07:19:54;;;;;;;7.72;2.13;;;17.10;58.40;;;;;;5072027;28;20386;-80
2021/06/01 07:22:20;;;;;;;8.40;2.35;;;17.10;58.30;;;;;;5063978;28;20934;-83
2021/06/01 07:24:50;;;;;;;4.32;1.88;;;17.20;58.50;;;;;;5069728;28;20112;-79
2021/06/01 07:27:16;;;;;;;9.27;2.90;;;17.20;58.50;;;;;;5061920;28;20428;-80
2021/06/01 07:29:41;;;;;;;5.13;2.10;;;17.30;58.50;;;;;;5060474;28;20055;-81
2021/06/01 07:32:07;;;;;;;5.63;2.30;;;17.30;58.40;;;;;;5065870;28;20049;-82
2021/06/01 07:34:33;;;;;;;6.25;2.80;;;17.40;58.50;;;;;;5038414;28;20127;-82
2021/06/01 07:37:02;;;;;;;7.03;2.35;;;17.40;58.50;;;;;;5071242;28;20082;-79
2021/06/01 07:39:27;;;;;;;5.80;2.05;;;17.50;58.60;;;;;;5059415;28;20036;-83
2021/06/01 07:41:53;;;;;;;7.95;3.30;;;17.50;58.70;;;;;;5074103;28;20449;-80
2021/06/01 07:44:19;;;;;;;6.05;2.45;;;17.60;58.70;;;;;;5066598;28;20057;-83
2021/06/01 07:49:30;;;;;;;4.70;2.33;;;17.70;58.90;;;;;;5065168;28;20489;-82
2021/06/01 07:51:56;;;;;;;7.15;2.40;;;17.80;59.00;;;;;;5063879;28;20016;-83
2021/06/01 07:54:24;;;;;;;7.10;2.47;;;17.80;58.90;;;;;;5056340;28;20492;-82
2021/06/01 07:56:50;;;;;;;6.55;2.25;;;17.90;59.00;;;;;;5055242;28;20068;-84
2021/06/01 07:59:16;;;;;;;8.90;2.40;;;17.90;59.00;;;;;;5056230;28;20075;-79
2021/06/01 08:01:43;;;;;;;6.25;2.83;;;18.00;59.10;;;;;;5057925;28;20064;-83
2021/06/01 08:04:09;;;;;;;5.25;2.60;;;18.00;59.10;;;;;;5075684;28;20017;-84
2021/06/01 08:06:37;;;;;;;6.35;2.63;;;18.10;58.90;;;;;;5054641;28;20383;-85
2021/06/01 08:09:10;;;;;;;5.72;2.72;;;18.20;58.80;;;;;;5038496;28;20412;-83
2021/06/01 08:11:36;;;;;;;4.68;2.03;;;18.30;58.90;;;;;;5038085;28;20060;-83
2021/06/01 08:14:02;;;;;;;6.65;2.45;;;18.30;58.90;;;;;;5056230;28;20031;-78
2021/06/01 08:16:36;;;;;;;5.55;2.90;;;18.40;59.10;;;;;;5054602;28;20083;-82
2021/06/01 08:19:11;;;;;;;4.78;2.25;;;18.40;59.10;;;;;;5054518;28;20025;-83
2021/06/01 08:24:15;;;;;;;5.25;2.47;;;18.60;59.10;;;;;;5055870;28;20154;-83
2021/06/01 08:26:41;;;;;;;7.95;3.28;;;18.60;59.10;;;;;;5055202;28;20025;-83
2021/06/01 08:29:07;;;;;;;4.80;2.13;;;18.70;59.20;;;;;;5054219;28;20082;-83
2021/06/01 08:31:33;;;;;;;7.03;2.70;;;18.70;59.20;;;;;;5059891;28;20377;-84
2021/06/01 08:33:58;;;;;;;5.57;3.10;;;18.80;59.20;;;;;;5057606;28;20052;-82
2021/06/01 08:36:25;;;;;;;5.85;2.83;;;18.90;59.10;;;;;;5067077;28;20124;-80
2021/06/01 08:38:51;;;;;;;10.10;3.42;;;18.90;59.20;;;;;;5066897;28;20123;-82
2021/06/01 08:41:17;;;;;;;7.85;3.15;;;19.10;59.20;;;;;;5057429;28;20024;-83
2021/06/01 08:43:44;;;;;;;7.60;2.55;;;19.10;59.10;;;;;;5035524;28;20109;-81
2021/06/01 08:46:10;;;;;;;5.88;2.97;;;19.20;59.00;;;;;;5059095;28;20029;-81
2021/06/01 08:48:43;;;;;;;9.23;2.90;;;19.30;59.00;;;;;;5053793;28;20173;-82
2021/06/01 08:51:09;;;;;;;4.03;1.83;;;19.40;59.00;;;;;;5064185;28;20480;-84
2021/06/01 08:53:35;;;;;;;5.88;2.65;;;19.40;58.70;;;;;;5050709;28;20025;-82
2021/06/01 08:56:01;;;;;;;5.80;2.38;;;19.50;58.40;;;;;;5059651;28;20025;-84
2021/06/01 08:58:27;;;;;;;7.03;2.28;;;19.60;58.10;;;;;;5038955;28;20044;-80
2021/06/01 09:00:53;;;;;;;7.13;2.55;;;19.70;57.80;;;;;;5059732;28;20059;-82
2021/06/01 09:03:23;;;;;;;8.77;2.15;;;19.80;57.50;;;;;;5053403;28;20047;-83
2021/06/01 09:08:41;;;;;;;8.07;2.33;;;19.90;56.80;;;;;;5036149;28;20061;-83
2021/06/01 09:11:26;;;;;;;5.22;1.98;;;20.00;56.60;;;;;;5037015;28;20057;-81
2021/06/01 09:22:01;;;;;;;9.23;2.53;;;20.40;55.80;;;;;;5054688;28;20040;-81
2021/06/01 09:24:26;;;;;;;6.55;2.42;;;20.60;55.80;;;;;;5070179;28;20373;-83
2021/06/01 09:29:21;;;;;;;5.40;2.70;;;20.70;55.60;;;;;;5074291;28;20016;-82
2021/06/01 09:32:07;;;;;;;4.90;2.17;;;20.80;55.40;;;;;;5056100;28;20067;-84
2021/06/01 09:34:44;;;;;;;5.00;2.35;;;20.90;55.20;;;;;;5072790;28;20031;-81
2021/06/01 09:37:19;;;;;;;6.65;2.28;;;21.00;54.90;;;;;;5073881;28;20112;-80
2021/06/01 09:40:00;;;;;;;6.30;2.40;;;21.10;54.70;;;;;;5073333;28;20043;-83
2021/06/01 09:42:28;;;;;;;4.90;2.17;;;21.20;54.50;;;;;;5057867;28;20491;-81
2021/06/01 09:45:08;;;;;;;5.93;2.10;;;21.30;54.20;;;;;;5062142;28;20025;-83
2021/06/01 09:48:00;;;;;;;3.67;1.58;;;21.30;53.60;;;;;;5054462;28;20082;-84
2021/06/01 09:53:07;;;;;;;5.03;1.90;;;21.40;53.40;;;;;;5074191;28;20120;-81
2021/06/01 09:55:39;;;;;;;4.05;1.52;;;21.50;53.30;;;;;;5057077;28;20055;-82
2021/06/01 09:58:13;;;;;;;6.25;1.88;;;21.50;53.20;;;;;;5059290;28;20029;-82
2021/06/01 10:00:39;;;;;;;;;;;21.60;52.80;;;;;;5062419;28;20087;-84
2021/06/01 10:03:09;;;;;;;5.13;1.52;;;21.60;52.60;;;;;;5062618;28;19915;-83
2021/06/01 10:05:39;;;;;;;4.25;1.73;;;21.70;52.70;;;;;;5064442;28;20029;-83
2021/06/01 10:08:17;;;;;;;4.78;1.90;;;21.70;52.20;;;;;;5069596;28;20035;-84
2021/06/01 10:10:55;;;;;;;3.55;1.70;;;21.80;51.80;;;;;;5052534;28;20028;-78
2021/06/01 10:13:23;;;;;;;3.92;1.80;;;21.80;51.50;;;;;;5052649;28;20071;-83
2021/06/01 10:15:51;;;;;;;3.88;1.90;;;21.90;51.30;;;;;;5056398;28;20033;-85
2021/06/01 10:18:19;;;;;;;5.30;1.38;;;22.00;51.20;;;;;;5077879;28;20017;-83
2021/06/01 10:20:47;;;;;;;6.25;1.20;;;22.00;51.10;;;;;;5063420;28;20471;-85
2021/06/01 10:23:18;;;;;;;2.90;1.33;;;22.10;50.80;;;;;;5062053;28;20047;-81
2021/06/01 10:25:43;;;;;;;3.80;1.60;;;22.20;50.50;;;;;;5061532;28;20029;-88
2021/06/01 10:28:10;;;;;;;3.00;1.05;;;22.30;50.20;;;;;;5046617;28;20376;-83
2021/06/01 10:30:41;;;;;;;3.63;1.50;;;22.40;49.60;;;;;;5028797;28;20420;-87
2021/06/01 10:33:16;;;;;;;2.95;1.20;;;22.50;49.00;;;;;;5051924;28;20047;-81
2021/06/01 10:35:54;;;;;;;3.55;0.90;;;22.60;48.10;;;;;;5059440;28;20029;-79
2021/06/01 10:44:33;;;;;;;2.47;1.00;;;23.10;46.80;;;;;;5053347;28;20039;-83
2021/06/01 10:50:05;;;;;;;2.97;1.38;;;23.60;45.90;;;;;;5053641;28;20098;-84
2021/06/01 10:52:31;;;;;;;6.20;1.02;;;23.90;45.20;;;;;;5051867;28;20542;-83
2021/06/01 10:55:00;;;;;;;3.35;1.00;;;24.10;44.40;;;;;;5051888;28;20028;-83
2021/06/01 10:57:53;;;;;;;2.08;0.85;;;24.30;43.90;;;;;;5052475;28;20009;-81
2021/06/01 11:03:06;;;;;;;5.60;1.23;;;24.80;42.60;;;;;;5053719;28;20036;-84
2021/06/01 11:05:52;;;;;;;4.53;1.10;;;25.10;42.20;;;;;;5051713;28;20029;-83
2021/06/01 11:08:35;;;;;;;6.57;1.10;;;25.40;41.80;;;;;;5052760;28;20101;-85
2021/06/01 11:11:28;;;;;;;2.17;1.00;;;25.60;41.00;;;;;;5052075;28;20021;-83
2021/06/01 11:13:56;;;;;;;3.53;0.95;;;25.90;40.80;;;;;;5052963;28;20108;-82
2021/06/01 11:16:22;;;;;;;3.53;1.30;;;26.20;40.90;;;;;;5052156;28;20033;-80
2021/06/01 11:19:01;;;;;;;1.90;0.73;;;26.40;40.60;;;;;;5052861;28;20040;-83
2021/06/01 11:21:38;;;;;;;2.33;1.13;;;26.60;40.10;;;;;;5059149;28;20067;-86
2021/06/01 11:35:45;;;;;;;2.17;1.00;;;27.80;38.40;;;;;;5074969;28;20476;-82
2021/06/01 11:43:20;;;;;;;4.30;1.05;;;28.40;37.40;;;;;;5072896;28;20468;-85
2021/06/01 11:45:57;;;;;;;5.90;1.10;;;28.60;37.40;;;;;;5054677;28;20029;-86
2021/06/01 11:51:17;;;;;;;2.90;1.17;;;28.90;36.80;;;;;;5056117;28;20052;-86
2021/06/01 11:54:02;;;;;;;2.05;0.98;;;29.10;35.80;;;;;;5068113;28;20048;-85
2021/06/01 12:18:58;;;;;;;2.22;0.85;;;31.20;33.60;;;;;;5075777;28;20586;-85
2021/06/01 12:21:36;;;;;;;2.85;0.93;;;31.50;33.20;;;;;;5073164;28;20017;-85
2021/06/01 12:24:15;;;;;;;3.25;0.75;;;31.60;32.80;;;;;;5065475;28;20013;-83
2021/06/01 12:32:35;;;;;;;4.72;1.00;;;32.20;32.70;;;;;;5075458;28;20078;-85
2021/06/01 12:35:17;;;;;;;3.05;1.00;;;32.40;32.70;;;;;;5073472;28;20025;-79
2021/06/01 13:20:26;;;;;;;1.73;0.60;;;34.90;30.20;;;;;;5074658;28;20039;-82
2021/06/01 13:39:36;;;;;;;1.13;0.60;;;36.10;28.60;;;;;;5074062;28;20115;-82
2021/06/01 13:50:53;;;;;;;1.23;0.60;;;36.70;28.00;;;;;;5073833;28;20039;-79
2021/06/01 13:55:55;;;;;;;3.88;0.77;;;36.90;27.70;;;;;;5073015;28;20568;-83
2021/06/01 13:58:33;;;;;;;1.48;0.63;;;37.00;27.50;;;;;;5072086;28;20052;-84
2021/06/01 14:31:53;;;;;;;3.20;0.65;;;37.80;27.60;;;;;;5073421;28;20024;-84
2021/06/01 14:56:39;;;;;;;2.22;0.70;;;37.90;27.40;;;;;;5058821;28;20035;-81
2021/06/01 16:23:09;;;;;;;3.40;0.73;;;32.70;29.00;;;;;;5061464;28;20546;-84
2021/06/01 16:42:17;;;;;;;3.83;1.10;;;31.70;29.60;;;;;;5075926;28;20040;-79
2021/06/01 17:04:02;;;;;;;2.50;0.80;;;30.80;30.10;;;;;;5069596;28;20496;-83
2021/06/01 17:06:36;;;;;;;1.80;0.80;;;30.70;30.20;;;;;;5055558;28;20446;-79
2021/06/01 17:11:55;;;;;;;3.80;0.80;;;30.50;30.10;;;;;;5072934;28;20028;-89
2021/06/01 17:14:32;;;;;;;3.58;1.05;;;30.40;30.10;;;;;;5072747;28;20424;-84
2021/06/01 17:17:05;;;;;;;2.80;0.90;;;30.30;30.20;;;;;;5044346;28;20160;-83
2021/06/01 17:22:55;;;;;;;2.22;0.70;;;30.20;30.00;;;;;;5052640;28;20429;-83
2021/06/01 17:37:30;;;;;;;2.08;0.63;;;29.80;30.10;;;;;;5012813;28;20072;-84
2021/06/01 17:39:56;;;;;;;4.13;0.60;;;29.70;30.20;;;;;;5012797;28;20437;-88
2021/06/01 17:42:30;;;;;;;1.23;0.50;;;29.70;30.10;;;;;;5009131;28;20033;-87
2021/06/01 17:45:03;;;;;;;2.92;0.85;;;29.60;30.00;;;;;;5054093;28;20357;-84
2021/06/01 17:47:34;;;;;;;2.47;0.80;;;29.70;30.00;;;;;;5052957;28;20021;-83
2021/06/01 17:50:02;;;;;;;3.03;0.95;;;29.50;30.60;;;;;;5053441;28;20028;-87
2021/06/01 17:52:30;;;;;;;1.30;0.77;;;29.40;30.00;;;;;;5054523;28;20026;-82
2021/06/01 17:54:58;;;;;;;3.72;0.80;;;29.40;30.10;;;;;;5053884;28;20045;-81
2021/06/01 17:57:25;;;;;;;1.63;0.70;;;29.40;31.00;;;;;;5060464;28;20020;-84
2021/06/01 17:59:53;;;;;;;3.75;0.82;;;29.50;31.70;;;;;;5067470;28;20028;-87
2021/06/01 18:02:18;;;;;;;2.92;0.70;;;29.50;31.40;;;;;;5060217;28;20048;-82
2021/06/01 18:04:51;;;;;;;2.45;0.80;;;29.50;31.40;;;;;;5068208;28;20047;-86
2021/06/01 18:07:29;;;;;;;1.30;0.60;;;29.50;31.60;;;;;;5065456;28;20029;-85
2021/06/01 19:51:30;;;;;;;2.45;1.00;;;26.80;35.60;;;;;;5065699;28;20076;-81
2021/06/01 19:53:57;;;;;;;2.38;0.98;;;26.60;35.90;;;;;;5064776;28;20013;-83
2021/06/01 19:56:23;;;;;;;2.05;0.95;;;26.40;36.20;;;;;;5067749;28;20025;-81
2021/06/01 19:58:51;;;;;;;3.33;1.00;;;26.30;36.60;;;;;;5054072;28;20076;-81
2021/06/01 20:01:17;;;;;;;2.90;1.00;;;26.10;37.00;;;;;;5044201;28;20038;-82
2021/06/01 20:03:44;;;;;;;7.05;1.35;;;26.00;37.40;;;;;;5061030;28;20074;-82
2021/06/01 20:06:10;;;;;;;2.38;1.00;;;25.90;37.70;;;;;;5060551;28;20025;-81
2021/06/01 20:08:38;;;;;;;3.03;1.27;;;25.80;37.80;;;;;;5038265;28;20025;-81
2021/06/01 20:11:04;;;;;;;3.42;1.13;;;25.60;38.00;;;;;;5047097;28;20028;-81
2021/06/01 20:13:30;;;;;;;2.45;1.10;;;25.60;38.30;;;;;;5043925;28;20085;-82
2021/06/01 20:15:56;;;;;;;4.57;1.38;;;25.40;38.40;;;;;;5051525;28;20388;-82
2021/06/01 20:18:27;;;;;;;4.63;1.83;;;25.40;38.70;;;;;;5058968;28;20037;-81
2021/06/01 20:20:55;;;;;;;4.38;1.30;;;25.30;39.60;;;;;;5063195;28;20117;-82
2021/06/01 20:23:22;;;;;;;5.70;1.38;;;25.20;39.10;;;;;;5061677;28;20070;-81
2021/06/01 20:25:51;;;;;;;4.45;1.35;;;25.00;39.30;;;;;;5062861;28;20021;-83
2021/06/01 20:28:36;;;;;;;4.32;1.30;;;25.00;39.40;;;;;;5057074;28;20541;-82
2021/06/01 20:31:16;;;;;;;4.30;1.50;;;24.80;39.80;;;;;;5056622;28;20047;-83
2021/06/01 20:33:42;;;;;;;2.50;1.20;;;24.80;39.90;;;;;;5048296;28;20035;-84
2021/06/01 20:36:08;;;;;;;3.33;1.25;;;24.60;40.00;;;;;;5057038;28;20068;-82